METAR Torp

ENTO 172220Z AUTO 21009KT 9999 FEW035/// 13/11 Q1016

METAR Gardermoen

ENGM 172220Z 19014KT 9999 BKN013 14/11 Q1014

Webcam Kjeller